createdAt,value
2023-05-15T00:00:25.724Z,1.50
2023-05-15T00:01:47.781Z,1.73
2023-05-15T00:02:50.539Z,1.80
2023-05-15T00:03:52.721Z,1.52
2023-05-15T00:04:54.804Z,1.90
2023-05-15T00:05:57.335Z,1.65
2023-05-15T00:08:01.770Z,1.83
2023-05-15T00:09:04.310Z,1.55
2023-05-15T00:10:07.230Z,1.60
2023-05-15T00:11:09.537Z,1.95
2023-05-15T00:12:11.556Z,1.80
2023-05-15T00:13:13.545Z,2.10
2023-05-15T00:14:15.555Z,2.25
2023-05-15T00:15:17.967Z,2.17
2023-05-15T00:16:20.231Z,1.60
2023-05-15T00:17:22.827Z,1.83
2023-05-15T00:18:24.820Z,1.83
2023-05-15T00:19:27.361Z,1.80
2023-05-15T00:20:29.448Z,2.08
2023-05-15T00:21:31.482Z,2.10
2023-05-15T00:22:33.695Z,1.52
2023-05-15T00:23:36.091Z,1.88
2023-05-15T00:24:38.047Z,1.92
2023-05-15T00:25:40.048Z,1.90
2023-05-15T00:26:42.079Z,1.80
2023-05-15T00:27:44.449Z,1.83
2023-05-15T00:28:46.392Z,1.98
2023-05-15T00:29:48.459Z,1.85
2023-05-15T00:30:50.539Z,1.75
2023-05-15T00:31:52.883Z,1.80
2023-05-15T00:32:54.983Z,2.05
2023-05-15T00:33:57.810Z,1.80
2023-05-15T00:34:59.819Z,2.08
2023-05-15T00:36:02.268Z,1.70
2023-05-15T00:37:04.322Z,2.20
2023-05-15T00:38:06.306Z,2.35
2023-05-15T00:39:08.260Z,2.35
2023-05-15T00:40:12.813Z,2.03
2023-05-15T00:41:16.181Z,1.52
2023-05-15T00:42:19.126Z,1.88
2023-05-15T00:43:22.191Z,1.63
2023-05-15T00:44:26.832Z,2.17
2023-05-15T00:45:29.176Z,2.08
2023-05-15T00:46:32.267Z,2.45
2023-05-15T00:47:35.598Z,1.55
2023-05-15T00:48:38.978Z,1.85
2023-05-15T00:49:41.897Z,2.78
2023-05-15T00:50:44.658Z,2.10
2023-05-15T00:51:46.795Z,1.80
2023-05-15T00:52:49.395Z,2.30
2023-05-15T00:53:55.204Z,2.67
2023-05-15T00:54:57.198Z,2.53
2023-05-15T00:55:59.741Z,2.33
2023-05-15T00:58:04.028Z,2.55
2023-05-15T00:59:07.087Z,2.75
2023-05-15T01:00:10.614Z,2.53
2023-05-15T01:01:16.385Z,2.67
2023-05-15T01:02:21.700Z,2.53
2023-05-15T01:03:24.152Z,2.97
2023-05-15T01:04:26.273Z,2.50
2023-05-15T01:05:29.212Z,2.97
2023-05-15T01:06:31.957Z,3.17
2023-05-15T01:07:39.279Z,2.88
2023-05-15T01:08:48.071Z,3.53
2023-05-15T01:09:51.928Z,2.60
2023-05-15T01:10:54.502Z,2.90
2023-05-15T01:11:59.267Z,2.92
2023-05-15T01:13:02.593Z,3.10
2023-05-15T01:14:06.800Z,3.25
2023-05-15T01:15:09.215Z,3.00
2023-05-15T01:16:11.635Z,3.17
2023-05-15T01:17:13.708Z,2.97
2023-05-15T01:18:16.322Z,2.78
2023-05-15T01:19:18.564Z,2.85
2023-05-15T01:20:22.055Z,3.00
2023-05-15T01:21:37.660Z,2.72
2023-05-15T01:23:00.700Z,2.67
2023-05-15T01:24:35.095Z,2.30
2023-05-15T01:26:12.340Z,2.70
2023-05-15T01:27:33.563Z,2.10
2023-05-15T01:28:42.652Z,2.70
2023-05-15T01:29:54.395Z,2.25
2023-05-15T01:30:57.637Z,2.17
2023-05-15T01:32:06.840Z,2.40
2023-05-15T01:33:32.564Z,2.28
2023-05-15T01:34:48.519Z,2.05
2023-05-15T01:36:19.151Z,2.20
2023-05-15T01:37:25.226Z,2.00
2023-05-15T01:38:44.972Z,1.92
2023-05-15T01:39:50.846Z,1.52
2023-05-15T01:41:03.600Z,1.33
2023-05-15T01:42:18.382Z,2.15
2023-05-15T01:43:25.334Z,1.50
2023-05-15T01:44:57.808Z,1.70
2023-05-15T01:46:00.220Z,1.60
2023-05-15T01:47:08.944Z,1.75
2023-05-15T01:48:13.983Z,1.50
2023-05-15T01:49:19.330Z,1.92
2023-05-15T01:50:22.290Z,1.42
2023-05-15T01:51:26.821Z,1.75
2023-05-15T01:52:35.313Z,1.55
2023-05-15T01:53:38.571Z,1.50
2023-05-15T01:54:42.618Z,1.77
2023-05-15T01:55:45.776Z,1.70
2023-05-15T01:56:48.306Z,1.80
2023-05-15T01:57:51.940Z,1.40
2023-05-15T01:58:56.194Z,1.33
2023-05-15T01:59:59.605Z,1.48
2023-05-15T02:01:02.007Z,1.58
2023-05-15T02:02:08.066Z,1.60
2023-05-15T02:03:11.318Z,1.30
2023-05-15T02:04:14.567Z,1.30
2023-05-15T02:05:16.841Z,1.40
2023-05-15T02:06:19.074Z,1.30
2023-05-15T02:07:22.140Z,1.70
2023-05-15T02:08:26.357Z,1.35
2023-05-15T02:09:28.972Z,1.52
2023-05-15T02:10:33.149Z,1.20
2023-05-15T02:11:36.250Z,1.42
2023-05-15T02:12:40.808Z,1.90
2023-05-15T02:13:43.675Z,1.25
2023-05-15T02:14:48.741Z,1.25
2023-05-15T02:15:51.359Z,1.20
2023-05-15T02:16:53.351Z,1.40
2023-05-15T02:17:55.434Z,2.13
2023-05-15T02:18:57.595Z,1.38
2023-05-15T02:20:00.155Z,1.30
2023-05-15T02:21:03.102Z,1.40
2023-05-15T02:23:07.165Z,1.15
2023-05-15T02:24:09.686Z,1.60
2023-05-15T02:25:11.791Z,1.27
2023-05-15T02:26:37.014Z,1.02
2023-05-15T02:28:00.878Z,1.15
2023-05-15T02:29:24.871Z,1.10
2023-05-15T02:30:45.600Z,1.10
2023-05-15T02:32:05.554Z,0.98
2023-05-15T02:33:16.903Z,1.27
2023-05-15T02:34:33.223Z,1.17
2023-05-15T02:36:02.005Z,0.93
2023-05-15T02:37:13.741Z,1.25
2023-05-15T02:38:17.587Z,1.15
2023-05-15T02:39:22.308Z,1.10
2023-05-15T02:40:25.431Z,1.10
2023-05-15T02:41:28.295Z,1.38
2023-05-15T02:42:31.725Z,0.93
2023-05-15T02:43:36.363Z,1.33
2023-05-15T02:44:40.853Z,1.20
2023-05-15T02:45:44.430Z,1.23
2023-05-15T02:46:48.487Z,1.25
2023-05-15T02:47:51.884Z,1.33
2023-05-15T02:48:54.819Z,1.00
2023-05-15T02:51:00.124Z,0.95
2023-05-15T02:52:02.134Z,1.13
2023-05-15T02:53:05.619Z,1.20
2023-05-15T02:54:09.737Z,1.02
2023-05-15T02:55:12.044Z,1.02
2023-05-15T02:56:14.018Z,1.00
2023-05-15T02:57:16.241Z,0.90
2023-05-15T02:58:18.364Z,0.90
2023-05-15T02:59:20.789Z,1.10
2023-05-15T03:00:22.797Z,1.00
2023-05-15T03:01:24.830Z,0.75
2023-05-15T03:02:27.004Z,0.80
2023-05-15T03:03:29.479Z,0.95
2023-05-15T03:04:31.690Z,0.73
2023-05-15T03:05:33.737Z,0.70
2023-05-15T03:06:35.962Z,0.63
2023-05-15T03:07:38.298Z,0.90
2023-05-15T03:08:40.687Z,0.80
2023-05-15T03:09:42.623Z,0.70
2023-05-15T03:10:44.715Z,0.95
2023-05-15T03:11:47.145Z,0.60
2023-05-15T03:12:49.085Z,0.82
2023-05-15T03:13:51.101Z,0.50
2023-05-15T03:14:53.094Z,0.85
2023-05-15T03:15:55.416Z,0.60
2023-05-15T03:16:57.471Z,0.60
2023-05-15T03:17:59.457Z,0.70
2023-05-15T03:19:01.572Z,0.65
2023-05-15T03:20:05.102Z,0.60
2023-05-15T03:21:07.059Z,0.47
2023-05-15T03:22:08.992Z,0.40
2023-05-15T03:23:11.172Z,0.55
2023-05-15T03:24:13.534Z,0.50
2023-05-15T03:25:16.141Z,0.60
2023-05-15T03:26:18.119Z,0.47
2023-05-15T03:27:20.056Z,0.50
2023-05-15T03:28:22.479Z,0.45
2023-05-15T03:29:24.469Z,0.40
2023-05-15T03:30:26.487Z,0.70
2023-05-15T03:31:28.551Z,0.43
2023-05-15T03:32:31.008Z,0.50
2023-05-15T03:33:33.042Z,0.28
2023-05-15T03:34:35.006Z,0.60
2023-05-15T03:35:37.142Z,0.35
2023-05-15T03:36:39.499Z,0.50
2023-05-15T03:37:41.765Z,0.47
2023-05-15T03:38:44.538Z,0.38
2023-05-15T03:39:46.523Z,0.47
2023-05-15T03:40:51.001Z,0.43
2023-05-15T03:41:53.284Z,0.50
2023-05-15T03:42:55.277Z,0.40
2023-05-15T03:43:57.322Z,0.45
2023-05-15T03:44:59.895Z,0.40
2023-05-15T03:46:01.914Z,0.57
2023-05-15T03:47:04.165Z,0.52
2023-05-15T03:48:06.497Z,0.45
2023-05-15T03:49:08.897Z,0.50
2023-05-15T03:50:11.412Z,0.40
2023-05-15T03:51:13.466Z,0.70
2023-05-15T03:52:15.461Z,0.50
2023-05-15T03:53:17.888Z,0.30
2023-05-15T03:54:19.889Z,0.50
2023-05-15T03:55:21.915Z,0.40
2023-05-15T03:56:24.044Z,0.40
2023-05-15T03:57:26.450Z,0.80
2023-05-15T03:58:28.496Z,0.30
2023-05-15T03:59:31.417Z,0.60
2023-05-15T04:01:43.520Z,0.47
2023-05-15T04:02:49.862Z,0.22
2023-05-15T04:03:51.940Z,0.35
2023-05-15T04:04:54.102Z,0.73
2023-05-15T04:05:56.443Z,0.20
2023-05-15T04:06:58.487Z,0.40
2023-05-15T04:08:00.522Z,0.60
2023-05-15T04:09:02.568Z,0.30
2023-05-15T04:10:05.288Z,0.30
2023-05-15T04:11:07.450Z,0.30
2023-05-15T04:12:09.609Z,0.60
2023-05-15T04:13:11.730Z,0.45
2023-05-15T04:14:14.062Z,0.32
2023-05-15T04:15:21.986Z,0.32
2023-05-15T04:16:24.382Z,0.43
2023-05-15T04:17:26.576Z,0.30
2023-05-15T04:18:28.936Z,0.50
2023-05-15T04:19:31.081Z,0.70
2023-05-15T04:20:34.018Z,0.80
2023-05-15T04:22:38.290Z,0.60
2023-05-15T04:23:41.893Z,0.55
2023-05-15T04:24:43.892Z,0.30
2023-05-15T04:25:47.032Z,0.40
2023-05-15T04:26:49.481Z,0.60
2023-05-15T04:27:51.599Z,0.63
2023-05-15T04:29:03.364Z,0.80
2023-05-15T04:30:07.903Z,0.75
2023-05-15T04:31:10.299Z,0.50
2023-05-15T04:32:13.194Z,0.50
2023-05-15T04:33:15.359Z,0.82
2023-05-15T04:34:17.575Z,0.40
2023-05-15T04:35:19.933Z,0.75
2023-05-15T04:36:22.733Z,0.70
2023-05-15T04:37:24.767Z,0.57
2023-05-15T04:38:27.021Z,0.52
2023-05-15T04:39:29.363Z,0.80
2023-05-15T04:40:31.767Z,0.65
2023-05-15T04:41:33.774Z,0.70
2023-05-15T04:42:37.669Z,0.40
2023-05-15T04:43:41.390Z,0.70
2023-05-15T04:44:44.887Z,0.88
2023-05-15T04:45:47.220Z,0.70
2023-05-15T04:46:49.230Z,1.08
2023-05-15T04:47:51.790Z,0.60
2023-05-15T04:48:53.812Z,0.50
2023-05-15T04:49:56.377Z,0.98
2023-05-15T04:50:58.382Z,0.95
2023-05-15T04:52:00.773Z,0.68
2023-05-15T04:53:02.752Z,0.52
2023-05-15T04:54:04.972Z,0.60
2023-05-15T04:55:07.504Z,0.75
2023-05-15T04:57:12.172Z,0.80
2023-05-15T04:58:14.091Z,0.65
2023-05-15T04:59:16.403Z,0.80
2023-05-15T05:00:19.118Z,0.45
2023-05-15T05:01:21.808Z,0.55
2023-05-15T05:02:24.254Z,0.70
2023-05-15T05:03:26.345Z,0.60
2023-05-15T05:04:29.096Z,0.60
2023-05-15T05:05:31.108Z,0.70
2023-05-15T05:06:33.098Z,0.80
2023-05-15T05:07:35.665Z,0.65
2023-05-15T05:09:40.581Z,0.70
2023-05-15T05:10:42.540Z,0.50
2023-05-15T05:11:44.580Z,0.70
2023-05-15T05:12:47.041Z,0.50
2023-05-15T05:13:49.610Z,0.50
2023-05-15T05:14:51.608Z,0.82
2023-05-15T05:15:53.622Z,0.50
2023-05-15T05:16:56.167Z,0.52
2023-05-15T05:17:58.176Z,0.45
2023-05-15T05:19:00.180Z,0.60
2023-05-15T05:20:02.199Z,0.55
2023-05-15T05:21:04.738Z,0.50
2023-05-15T05:22:07.868Z,0.60
2023-05-15T05:23:09.765Z,0.57
2023-05-15T05:24:11.933Z,0.45
2023-05-15T05:25:14.284Z,0.45
2023-05-15T05:26:16.305Z,0.45
2023-05-15T05:27:18.342Z,0.30
2023-05-15T05:28:20.416Z,0.40
2023-05-15T05:29:22.754Z,0.28
2023-05-15T05:30:24.861Z,0.30
2023-05-15T05:31:27.013Z,0.40
2023-05-15T05:32:29.012Z,0.88
2023-05-15T05:33:31.349Z,0.38
2023-05-15T05:34:33.439Z,0.30
2023-05-15T05:35:35.453Z,0.40
2023-05-15T05:36:37.520Z,0.45
2023-05-15T05:37:41.127Z,0.32
2023-05-15T05:38:43.929Z,0.52
2023-05-15T05:39:47.096Z,0.65
2023-05-15T05:40:49.201Z,0.50
2023-05-15T05:41:51.504Z,0.47
2023-05-15T05:42:53.482Z,0.43
2023-05-15T05:43:55.728Z,0.40
2023-05-15T05:44:57.788Z,0.50
2023-05-15T05:46:00.195Z,0.43
2023-05-15T05:47:02.264Z,0.30
2023-05-15T05:48:06.904Z,0.32
2023-05-15T05:49:08.962Z,0.30
2023-05-15T05:50:11.747Z,0.30
2023-05-15T05:51:13.846Z,0.43
2023-05-15T05:52:18.623Z,0.32
2023-05-15T05:53:20.630Z,0.30
2023-05-15T05:54:22.940Z,0.30
2023-05-15T05:55:25.098Z,0.40
2023-05-15T05:56:27.372Z,0.50
2023-05-15T05:57:29.427Z,0.45
2023-05-15T05:58:31.900Z,0.60
2023-05-15T05:59:33.984Z,0.45
2023-05-15T06:00:36.295Z,0.50
2023-05-15T06:01:38.407Z,0.73
2023-05-15T06:02:40.830Z,0.70
2023-05-15T06:03:43.981Z,1.08
2023-05-15T06:04:46.473Z,0.70
2023-05-15T06:05:48.891Z,1.17
2023-05-15T06:06:51.335Z,1.45
2023-05-15T06:07:54.306Z,0.80
2023-05-15T06:09:58.675Z,1.00
2023-05-15T06:11:01.110Z,1.00
2023-05-15T06:12:05.072Z,1.30
2023-05-15T06:13:07.049Z,1.23
2023-05-15T06:14:09.710Z,1.30
2023-05-15T06:15:12.523Z,1.80
2023-05-15T06:16:14.526Z,1.33
2023-05-15T06:17:16.952Z,1.30
2023-05-15T06:18:19.070Z,1.10
2023-05-15T06:19:22.241Z,1.08
2023-05-15T06:20:24.536Z,1.20
2023-05-15T06:21:26.662Z,1.10
2023-05-15T06:22:28.720Z,1.63
2023-05-15T06:23:31.332Z,1.50
2023-05-15T06:24:33.337Z,1.40
2023-05-15T06:25:36.113Z,1.40
2023-05-15T06:26:38.230Z,1.60
2023-05-15T06:27:41.827Z,1.00
2023-05-15T06:28:43.870Z,1.42
2023-05-15T06:29:45.969Z,1.35
2023-05-15T06:30:48.053Z,1.48
2023-05-15T06:31:50.588Z,1.63
2023-05-15T06:32:53.868Z,1.85
2023-05-15T06:33:55.954Z,1.73
2023-05-15T06:34:57.971Z,2.10
2023-05-15T06:36:00.297Z,1.98
2023-05-15T06:37:02.438Z,2.10
2023-05-15T06:38:04.789Z,2.45
2023-05-15T06:39:07.082Z,2.60
2023-05-15T06:40:09.992Z,2.92
2023-05-15T06:41:12.037Z,2.60
2023-05-15T06:42:15.345Z,2.60
2023-05-15T06:43:17.324Z,2.15
2023-05-15T06:44:19.692Z,1.98
2023-05-15T06:45:21.675Z,1.98
2023-05-15T06:46:23.701Z,1.90
2023-05-15T06:47:26.133Z,2.00
2023-05-15T06:48:28.569Z,2.15
2023-05-15T06:49:30.544Z,2.35
2023-05-15T06:50:32.627Z,3.28
2023-05-15T06:51:34.614Z,3.33
2023-05-15T06:52:37.007Z,2.13
2023-05-15T06:53:39.149Z,1.98
2023-05-15T06:54:41.928Z,1.90
2023-05-15T06:55:43.896Z,1.90
2023-05-15T06:56:46.329Z,2.25
2023-05-15T06:57:48.349Z,2.33
2023-05-15T06:58:50.272Z,2.28
2023-05-15T06:59:52.330Z,2.05
2023-05-15T07:00:56.164Z,2.20
2023-05-15T07:01:58.701Z,2.22
2023-05-15T07:03:00.697Z,1.73
2023-05-15T07:04:02.654Z,1.85
2023-05-15T07:05:05.362Z,1.67
2023-05-15T07:06:07.626Z,1.80
2023-05-15T07:07:09.620Z,1.67
2023-05-15T07:08:11.629Z,2.53
2023-05-15T07:09:13.909Z,2.38
2023-05-15T07:10:15.997Z,2.05
2023-05-15T07:11:18.105Z,2.15
2023-05-15T07:12:20.032Z,2.00
2023-05-15T07:13:22.480Z,1.42
2023-05-15T07:14:24.476Z,2.03
2023-05-15T07:15:26.444Z,1.80
2023-05-15T07:16:28.446Z,1.40
2023-05-15T07:17:32.432Z,1.67
2023-05-15T07:18:34.605Z,1.73
2023-05-15T07:19:36.749Z,1.48
2023-05-15T07:20:39.234Z,1.83
2023-05-15T07:21:41.794Z,1.48
2023-05-15T07:22:55.138Z,1.70
2023-05-15T07:23:58.524Z,1.33
2023-05-15T07:25:00.592Z,1.58
2023-05-15T07:26:02.997Z,1.70
2023-05-15T07:27:05.189Z,1.80
2023-05-15T07:28:07.230Z,1.63
2023-05-15T07:30:12.288Z,1.25
2023-05-15T07:31:14.388Z,1.02
2023-05-15T07:32:16.392Z,1.02
2023-05-15T07:33:18.491Z,1.33
2023-05-15T07:34:21.016Z,1.30
2023-05-15T07:35:23.302Z,1.10
2023-05-15T07:36:25.505Z,1.02
2023-05-15T07:37:27.531Z,1.02
2023-05-15T07:38:29.963Z,1.45
2023-05-15T07:39:31.965Z,0.90
2023-05-15T07:40:33.990Z,0.90
2023-05-15T07:41:36.000Z,1.00
2023-05-15T07:42:39.997Z,1.30
2023-05-15T07:43:42.117Z,1.10
2023-05-15T07:44:45.450Z,1.13
2023-05-15T07:45:48.670Z,1.35
2023-05-15T07:46:50.969Z,0.70
2023-05-15T07:47:53.034Z,1.00
2023-05-15T07:48:55.145Z,1.02
2023-05-15T07:49:57.264Z,0.80
2023-05-15T07:50:59.594Z,0.73
2023-05-15T07:52:01.959Z,0.82
2023-05-15T07:53:04.010Z,0.70
2023-05-15T07:54:06.128Z,0.70
2023-05-15T07:55:09.661Z,0.80
2023-05-15T07:56:11.897Z,0.70
2023-05-15T07:57:14.361Z,0.60
2023-05-15T07:58:17.935Z,0.52
2023-05-15T07:59:20.292Z,0.60
2023-05-15T08:00:22.438Z,1.10
2023-05-15T08:01:24.421Z,0.98
2023-05-15T08:02:26.459Z,1.38
2023-05-15T08:03:28.990Z,0.85
2023-05-15T08:04:31.143Z,0.90
2023-05-15T08:05:33.179Z,1.20
2023-05-15T08:06:38.274Z,0.80
2023-05-15T08:07:40.978Z,0.80
2023-05-15T08:08:42.919Z,1.00
2023-05-15T08:09:44.915Z,0.88
2023-05-15T08:10:47.004Z,0.90
2023-05-15T08:11:49.356Z,0.80
2023-05-15T08:12:51.469Z,0.75
2023-05-15T08:13:53.432Z,0.82
2023-05-15T08:14:56.289Z,1.33
2023-05-15T08:15:58.666Z,0.80
2023-05-15T08:17:00.714Z,1.20
2023-05-15T08:18:07.776Z,0.90
2023-05-15T08:19:10.542Z,0.80
2023-05-15T08:20:13.463Z,0.85
2023-05-15T08:21:15.493Z,0.90
2023-05-15T08:22:17.668Z,0.70
2023-05-15T08:23:19.836Z,0.88
2023-05-15T08:24:22.217Z,0.73
2023-05-15T08:25:24.370Z,0.75
2023-05-15T08:26:26.933Z,0.70
2023-05-15T08:27:28.895Z,0.43
2023-05-15T08:28:31.405Z,0.80
2023-05-15T08:29:33.880Z,0.85
2023-05-15T08:30:36.412Z,0.80
2023-05-15T08:31:38.520Z,0.40
2023-05-15T08:32:40.920Z,0.40
2023-05-15T08:33:43.087Z,0.60
2023-05-15T08:34:45.220Z,0.70
2023-05-15T08:35:47.254Z,0.50
2023-05-15T08:36:49.573Z,0.68
2023-05-15T08:37:51.474Z,0.20
2023-05-15T08:38:53.481Z,0.52
2023-05-15T08:39:55.562Z,0.25
2023-05-15T08:40:58.880Z,0.63
2023-05-15T08:42:28.460Z,0.90
2023-05-15T08:43:33.943Z,0.95
2023-05-15T08:44:36.752Z,0.40
2023-05-15T08:45:39.201Z,1.00
2023-05-15T08:46:41.580Z,0.68
2023-05-15T08:47:44.220Z,0.50
2023-05-15T08:48:47.112Z,0.47
2023-05-15T08:49:58.836Z,0.40
2023-05-15T08:51:01.796Z,0.60
2023-05-15T08:52:05.194Z,0.52
2023-05-15T08:53:08.261Z,0.68
2023-05-15T08:54:11.845Z,0.55
2023-05-15T08:55:15.494Z,0.50
2023-05-15T08:56:18.862Z,0.43
2023-05-15T08:57:21.568Z,0.85
2023-05-15T08:58:26.236Z,0.77
2023-05-15T08:59:28.639Z,0.50
2023-05-15T09:00:31.564Z,0.50
2023-05-15T09:02:37.608Z,0.40
2023-05-15T09:03:39.893Z,0.50
2023-05-15T09:04:42.244Z,1.00
2023-05-15T09:05:44.697Z,0.50
2023-05-15T09:06:48.310Z,0.57
2023-05-15T09:07:51.686Z,0.43
2023-05-15T09:08:56.362Z,0.45
2023-05-15T09:09:59.499Z,0.50
2023-05-15T09:11:04.116Z,0.40
2023-05-15T09:12:09.297Z,0.30
2023-05-15T09:13:12.490Z,0.30
2023-05-15T09:14:14.925Z,0.30
2023-05-15T09:15:22.124Z,0.30
2023-05-15T09:16:24.323Z,0.30
2023-05-15T09:17:26.490Z,0.30
2023-05-15T09:18:29.078Z,0.30
2023-05-15T09:19:34.189Z,0.30
2023-05-15T09:20:38.240Z,0.28
2023-05-15T09:21:40.260Z,0.30
2023-05-15T09:22:42.366Z,0.50
2023-05-15T09:23:44.696Z,0.30
2023-05-15T09:24:48.465Z,0.30
2023-05-15T09:25:53.810Z,0.20
2023-05-15T09:27:07.195Z,0.30
2023-05-15T09:28:11.484Z,0.40
2023-05-15T09:29:18.079Z,0.38
2023-05-15T09:30:21.452Z,0.45
2023-05-15T09:31:23.658Z,0.40
2023-05-15T09:32:28.127Z,0.40
2023-05-15T09:33:38.804Z,0.30
2023-05-15T09:34:42.590Z,0.50
2023-05-15T09:35:45.541Z,0.30
2023-05-15T09:36:47.826Z,0.50
2023-05-15T09:37:58.190Z,0.28
2023-05-15T09:39:01.650Z,0.50
2023-05-15T09:40:13.904Z,0.30
2023-05-15T09:41:25.119Z,0.17
2023-05-15T09:42:27.090Z,0.20
2023-05-15T09:43:30.381Z,0.40
2023-05-15T09:44:32.968Z,0.40
2023-05-15T09:45:35.292Z,0.68
2023-05-15T09:46:37.697Z,0.50
2023-05-15T09:47:39.955Z,0.32
2023-05-15T09:48:42.175Z,0.50
2023-05-15T09:49:45.577Z,0.40
2023-05-15T09:50:48.284Z,0.40
2023-05-15T09:51:52.980Z,0.50
2023-05-15T09:52:58.972Z,0.32
2023-05-15T09:54:01.312Z,0.40
2023-05-15T09:55:03.311Z,0.73
2023-05-15T09:56:05.365Z,0.40
2023-05-15T09:57:09.588Z,0.60
2023-05-15T09:58:14.235Z,0.40
2023-05-15T09:59:21.755Z,0.20
2023-05-15T10:00:24.200Z,0.20
2023-05-15T10:01:27.760Z,0.40
2023-05-15T10:02:32.762Z,0.50
2023-05-15T10:03:34.825Z,0.40
2023-05-15T10:04:39.821Z,0.43
2023-05-15T10:05:43.142Z,0.47
2023-05-15T10:06:48.267Z,0.22
2023-05-15T10:07:55.266Z,0.50
2023-05-15T10:08:58.094Z,0.63
2023-05-15T10:10:02.528Z,0.70
2023-05-15T10:11:05.276Z,0.47
2023-05-15T10:12:08.957Z,0.50
2023-05-15T10:13:11.760Z,0.70
2023-05-15T10:15:18.338Z,0.30
2023-05-15T10:16:22.552Z,0.40
2023-05-15T10:17:25.741Z,0.50
2023-05-15T10:18:30.242Z,0.52
2023-05-15T10:19:32.809Z,0.40
2023-05-15T10:20:37.883Z,0.40
2023-05-15T10:21:41.753Z,0.30
2023-05-15T10:22:47.328Z,0.50
2023-05-15T10:23:51.196Z,0.30
2023-05-15T10:25:01.148Z,0.30
2023-05-15T10:26:08.942Z,0.60
2023-05-15T10:27:11.748Z,1.05
2023-05-15T10:28:14.714Z,0.40
2023-05-15T10:29:19.120Z,0.40
2023-05-15T10:30:21.993Z,0.30
2023-05-15T10:31:25.025Z,0.40
2023-05-15T10:32:27.841Z,0.30
2023-05-15T10:33:29.892Z,1.38
2023-05-15T10:34:35.090Z,0.40
2023-05-15T10:35:40.221Z,0.43
2023-05-15T10:36:43.299Z,0.30
2023-05-15T10:37:47.922Z,0.63
2023-05-15T10:38:50.517Z,0.50
2023-05-15T10:39:53.926Z,0.32
2023-05-15T10:41:13.177Z,0.40
2023-05-15T10:42:20.183Z,0.47
2023-05-15T10:43:23.352Z,0.30
2023-05-15T10:44:25.341Z,0.30
2023-05-15T10:45:28.758Z,0.38
2023-05-15T10:46:33.736Z,0.35
2023-05-15T10:47:37.497Z,0.30
2023-05-15T10:48:40.687Z,0.45
2023-05-15T10:49:43.072Z,0.32
2023-05-15T10:50:45.148Z,0.40
2023-05-15T10:51:46.995Z,0.40
2023-05-15T10:52:52.676Z,0.30
2023-05-15T10:53:56.724Z,0.40
2023-05-15T10:54:58.788Z,0.47
2023-05-15T10:56:00.773Z,0.40
2023-05-15T10:57:02.765Z,0.30
2023-05-15T10:58:11.624Z,0.30
2023-05-15T10:59:13.693Z,0.45
2023-05-15T11:00:27.216Z,0.50
2023-05-15T11:01:35.435Z,0.43
2023-05-15T11:02:41.168Z,0.45
2023-05-15T11:03:49.140Z,0.30
2023-05-15T11:05:00.002Z,0.30
2023-05-15T11:06:12.490Z,0.88
2023-05-15T11:07:16.478Z,0.30
2023-05-15T11:08:19.653Z,0.38
2023-05-15T11:09:21.557Z,0.30
2023-05-15T11:10:29.580Z,0.30
2023-05-15T11:11:54.954Z,0.28
2023-05-15T11:13:02.366Z,0.40
2023-05-15T11:14:13.425Z,0.35
2023-05-15T11:15:15.310Z,0.30
2023-05-15T11:16:55.896Z,0.20
2023-05-15T11:18:07.757Z,0.40
2023-05-15T11:19:28.659Z,0.32
2023-05-15T11:20:40.914Z,0.40
2023-05-15T11:21:47.028Z,0.30
2023-05-15T11:23:00.101Z,0.30
2023-05-15T11:24:05.829Z,0.30
2023-05-15T11:25:12.761Z,0.38
2023-05-15T11:26:14.984Z,0.28
2023-05-15T11:27:22.681Z,0.40
2023-05-15T11:28:26.446Z,0.20
2023-05-15T11:29:28.739Z,0.22
2023-05-15T11:30:39.202Z,0.30
2023-05-15T11:31:41.631Z,0.10
2023-05-15T11:32:47.062Z,0.38
2023-05-15T11:33:52.433Z,0.30
2023-05-15T11:35:01.361Z,0.13
2023-05-15T11:36:05.543Z,0.40
2023-05-15T11:37:17.241Z,0.47
2023-05-15T11:38:24.966Z,0.20
2023-05-15T11:39:28.531Z,0.10
2023-05-15T11:40:50.642Z,0.30
2023-05-15T11:41:54.447Z,0.35
2023-05-15T11:43:05.836Z,0.25
2023-05-15T11:44:07.959Z,0.22
2023-05-15T11:45:10.934Z,0.38
2023-05-15T11:46:14.737Z,0.20
2023-05-15T11:47:17.506Z,0.28
2023-05-15T11:48:19.934Z,0.20
2023-05-15T11:49:24.811Z,0.20
2023-05-15T11:50:28.062Z,0.50
2023-05-15T11:51:30.382Z,0.30
2023-05-15T11:52:32.344Z,0.50
2023-05-15T11:53:34.580Z,0.30
2023-05-15T11:54:37.036Z,0.30
2023-05-15T11:55:41.808Z,0.20
2023-05-15T11:56:45.202Z,0.40
2023-05-15T11:57:47.639Z,0.30
2023-05-15T11:59:56.091Z,0.30
2023-05-15T12:00:58.356Z,0.13
2023-05-15T12:02:00.228Z,0.32
2023-05-15T12:03:04.160Z,0.45
2023-05-15T12:04:12.813Z,0.20
2023-05-15T12:05:14.998Z,0.68
2023-05-15T12:06:17.189Z,0.20
2023-05-15T12:07:19.485Z,0.50
2023-05-15T12:08:21.924Z,0.30
2023-05-15T12:09:27.685Z,0.40
2023-05-15T12:10:30.418Z,0.40
2023-05-15T12:11:32.475Z,0.30
2023-05-15T12:12:36.972Z,0.32
2023-05-15T12:13:38.896Z,0.30
2023-05-15T12:14:41.471Z,0.40
2023-05-15T12:15:45.381Z,0.20
2023-05-15T12:16:47.748Z,0.43
2023-05-15T12:17:51.808Z,0.50
2023-05-15T12:18:54.319Z,0.40
2023-05-15T12:19:57.461Z,0.43
2023-05-15T12:21:00.442Z,0.47
2023-05-15T12:22:05.496Z,0.40
2023-05-15T12:23:08.779Z,0.50
2023-05-15T12:24:12.963Z,0.20
2023-05-15T12:25:18.871Z,0.40
2023-05-15T12:26:23.363Z,0.38
2023-05-15T12:27:26.747Z,0.32
2023-05-15T12:28:30.345Z,0.43
2023-05-15T12:29:32.661Z,0.40
2023-05-15T12:30:35.387Z,0.50
2023-05-15T12:32:39.922Z,0.40
2023-05-15T12:34:44.271Z,0.40
2023-05-15T12:35:54.061Z,0.30
2023-05-15T12:36:56.029Z,0.25
2023-05-15T12:38:00.363Z,0.20
2023-05-15T12:39:08.028Z,0.20
2023-05-15T12:40:12.216Z,0.32
2023-05-15T12:41:14.344Z,0.60
2023-05-15T12:42:16.727Z,0.47
2023-05-15T12:43:18.743Z,0.40
2023-05-15T12:44:21.252Z,0.40
2023-05-15T12:45:23.617Z,0.17
2023-05-15T12:46:29.698Z,0.75
2023-05-15T12:47:31.753Z,0.40
2023-05-15T12:48:33.850Z,0.38
2023-05-15T12:49:36.974Z,0.40
2023-05-15T12:50:39.512Z,0.20
2023-05-15T12:51:44.992Z,0.30
2023-05-15T12:52:58.077Z,0.40
2023-05-15T12:54:00.022Z,0.32
2023-05-15T12:55:02.383Z,0.45
2023-05-15T12:56:04.970Z,0.22
2023-05-15T12:57:08.955Z,0.20
2023-05-15T12:58:12.653Z,0.32
2023-05-15T12:59:15.129Z,1.25
2023-05-15T13:00:17.657Z,0.22
2023-05-15T13:01:19.695Z,0.20
2023-05-15T13:02:23.380Z,0.55
2023-05-15T13:03:28.043Z,0.40
2023-05-15T13:04:33.356Z,0.30
2023-05-15T13:05:36.683Z,0.35
2023-05-15T13:06:46.368Z,0.20
2023-05-15T13:07:49.599Z,0.30
2023-05-15T13:08:51.492Z,0.30
2023-05-15T13:10:06.976Z,0.30
2023-05-15T13:11:16.787Z,0.32
2023-05-15T13:12:20.323Z,0.35
2023-05-15T13:13:22.627Z,0.30
2023-05-15T13:14:27.453Z,0.30
2023-05-15T13:15:45.576Z,0.30
2023-05-15T13:16:48.058Z,0.20
2023-05-15T13:17:53.588Z,0.52
2023-05-15T13:18:59.237Z,0.30
2023-05-15T13:20:02.072Z,0.30
2023-05-15T13:21:04.534Z,0.30
2023-05-15T13:22:06.688Z,0.32
2023-05-15T13:23:09.937Z,0.70
2023-05-15T13:24:12.158Z,0.47
2023-05-15T13:25:18.126Z,0.28
2023-05-15T13:26:20.101Z,0.20
2023-05-15T13:27:22.031Z,0.10
2023-05-15T13:28:28.649Z,0.20
2023-05-15T13:29:32.942Z,0.20
2023-05-15T13:30:35.578Z,0.20
2023-05-15T13:31:37.723Z,0.43
2023-05-15T13:32:39.744Z,0.30
2023-05-15T13:33:42.069Z,0.32
2023-05-15T13:34:44.365Z,0.43
2023-05-15T13:35:46.468Z,0.38
2023-05-15T13:36:48.450Z,0.50
2023-05-15T13:37:50.803Z,0.28
2023-05-15T13:38:52.790Z,0.43
2023-05-15T13:39:54.689Z,0.32
2023-05-15T13:40:56.572Z,0.40
2023-05-15T13:41:58.816Z,0.10
2023-05-15T13:43:03.154Z,0.75
2023-05-15T13:44:05.146Z,0.30
2023-05-15T13:45:09.364Z,0.40
2023-05-15T13:46:11.591Z,0.32
2023-05-15T13:47:13.534Z,0.30
2023-05-15T13:48:15.788Z,0.25
2023-05-15T13:49:17.826Z,0.30
2023-05-15T13:50:20.192Z,0.30
2023-05-15T13:51:22.101Z,0.80
2023-05-15T13:52:24.202Z,0.30
2023-05-15T13:53:26.253Z,0.40
2023-05-15T13:54:28.512Z,0.50
2023-05-15T13:55:30.550Z,0.43
2023-05-15T13:56:32.661Z,0.40
2023-05-15T13:57:34.581Z,0.52
2023-05-15T13:58:36.863Z,0.47
2023-05-15T13:59:38.774Z,0.30
2023-05-15T14:00:43.431Z,0.30
2023-05-15T14:01:45.348Z,0.60
2023-05-15T14:02:47.653Z,0.28
2023-05-15T14:03:49.602Z,0.43
2023-05-15T14:04:51.577Z,0.40
2023-05-15T14:05:54.026Z,0.30
2023-05-15T14:07:58.397Z,0.30
2023-05-15T14:09:00.381Z,0.30
2023-05-15T14:10:02.409Z,0.13
2023-05-15T14:11:04.864Z,0.40
2023-05-15T14:12:06.824Z,0.30
2023-05-15T14:13:09.198Z,0.55
2023-05-15T14:14:11.646Z,0.50
2023-05-15T14:16:15.919Z,0.32
2023-05-15T14:17:18.670Z,0.38
2023-05-15T14:18:20.623Z,0.30
2023-05-15T14:19:23.012Z,0.25
2023-05-15T14:20:25.318Z,0.20
2023-05-15T14:21:28.080Z,0.40
2023-05-15T14:22:30.125Z,0.30
2023-05-15T14:23:32.529Z,0.38
2023-05-15T14:24:34.527Z,0.47
2023-05-15T14:25:36.465Z,0.40
2023-05-15T14:26:38.395Z,0.30
2023-05-15T14:27:41.217Z,0.40
2023-05-15T14:28:43.360Z,0.30